Time;durP1;ratioP1;P1;durP2;ratioP2;P2;SDS_P1;SDS_P2;PMS_P1;PMS_P2;Temp;Humidity;BMP_temperature;BMP_pressure;BME280_temperature;BME280_humidity;BME280_pressure;Samples;Min_cycle;Max_cycle;Signal;HPM_P1;HPM_P2
2022/08/10 00:00:31;;;;;;;5.70;5.30;;;;;;;-143.84;66.22;44925.31;5131987;27;20441;-69
2022/08/10 00:03:00;;;;;;;13.30;5.67;;;;;;;-143.84;66.54;44959.56;5113814;27;20451;-68
2022/08/10 00:05:28;;;;;;;11.53;6.00;;;;;;;-143.84;66.93;44927.19;5111743;28;20508;-69
2022/08/10 00:07:55;;;;;;;12.20;5.80;;;;;;;-143.84;66.98;44942.44;5111891;28;20883;-69
2022/08/10 00:10:24;;;;;;;9.20;5.30;;;;;;;-143.84;66.87;44942.44;5127796;27;20445;-69
2022/08/10 00:12:51;;;;;;;10.10;5.50;;;;;;;-143.84;67.24;44953.88;5132279;27;20488;-68
2022/08/10 00:15:20;;;;;;;7.77;5.10;;;;;;;-143.84;67.01;44972.91;5131717;27;21075;-68
2022/08/10 00:17:48;;;;;;;9.00;5.30;;;;;;;-143.84;66.99;44946.25;5131890;27;20511;-69
2022/08/10 00:20:17;;;;;;;7.20;4.40;;;;;;;-143.84;66.84;44948.16;5131826;27;20487;-69
2022/08/10 00:22:44;;;;;;;10.40;4.83;;;;;;;-143.84;66.58;44934.81;5131535;27;20450;-69
2022/08/10 00:25:11;;;;;;;8.87;5.10;;;;;;;-143.84;67.14;44946.25;5132043;27;20442;-69
2022/08/10 00:27:38;;;;;;;9.00;4.83;;;;;;;-143.84;66.83;44932.91;5131840;27;20426;-79
2022/08/10 00:30:07;;;;;;;5.70;5.20;;;;;;;-143.84;67.07;44951.97;5135753;27;20439;-79
2022/08/10 00:32:34;;;;;;;8.17;5.00;;;;;;;-143.84;67.18;44944.34;5135265;27;20434;-79
2022/08/10 00:35:01;;;;;;;8.30;4.93;;;;;;;-143.84;67.06;44929.09;5134477;27;20496;-79
2022/08/10 00:37:29;;;;;;;12.67;6.20;;;;;;;-143.84;67.39;44950.06;5134419;27;20431;-79
2022/08/10 00:39:57;;;;;;;10.30;4.63;;;;;;;-143.84;67.10;44955.75;5134340;27;20434;-79
2022/08/10 00:42:25;;;;;;;5.17;4.67;;;;;;;-143.84;67.18;44936.72;5135117;27;20943;-79
2022/08/10 00:44:52;;;;;;;6.53;4.63;;;;;;;-143.84;67.30;44942.44;5134711;27;20434;-79
2022/08/10 00:47:20;;;;;;;8.80;4.53;;;;;;;-143.84;67.38;44936.72;5135219;27;21354;-79
2022/08/10 00:49:48;;;;;;;10.73;5.33;;;;;;;-143.84;67.47;44950.06;5134818;27;20431;-79
2022/08/10 00:52:17;;;;;;;11.67;5.03;;;;;;;-143.84;67.55;44944.34;5135450;27;20438;-79
2022/08/10 00:54:48;;;;;;;5.60;4.93;;;;;;;-143.84;67.38;44959.56;5134886;27;20493;-80
2022/08/10 00:57:15;;;;;;;5.83;4.63;;;;;;;-143.84;67.49;44948.16;5135539;27;20426;-79
2022/08/10 00:59:43;;;;;;;7.80;5.40;;;;;;;-143.84;67.40;44940.53;5134555;27;20904;-79
2022/08/10 01:02:10;;;;;;;6.60;4.93;;;;;;;-143.84;67.47;44925.31;5134442;27;20438;-80
2022/08/10 01:04:37;;;;;;;8.63;4.80;;;;;;;-143.84;67.79;44967.19;5116648;27;20494;-79
2022/08/10 01:07:20;;;;;;;10.23;4.80;;;;;;;-143.84;67.43;44957.66;5134636;27;20442;-79
2022/08/10 01:10:02;;;;;;;7.50;4.90;;;;;;;-143.84;67.82;44925.31;5134253;27;20926;-79
2022/08/10 01:12:34;;;;;;;5.73;4.80;;;;;;;-143.84;67.66;44963.38;5134704;27;21007;-79
2022/08/10 01:15:08;;;;;;;9.37;5.37;;;;;;;-143.84;67.50;44953.88;5134648;27;20482;-79
2022/08/10 01:17:47;;;;;;;7.83;5.03;;;;;;;-143.84;67.63;44946.25;5119345;27;20446;-79
2022/08/10 01:20:23;;;;;;;5.03;4.60;;;;;;;-143.84;67.48;44963.38;5114016;28;20480;-79
2022/08/10 01:23:17;;;;;;;5.50;5.00;;;;;;;-143.84;67.36;44946.25;5114210;28;20601;-80
2022/08/10 01:26:10;;;;;;;5.80;5.33;;;;;;;-143.84;66.87;44919.59;5100509;28;20512;-79
2022/08/10 01:28:50;;;;;;;6.60;5.20;;;;;;;-143.84;66.75;44976.72;5113572;28;20431;-79
2022/08/10 01:31:23;;;;;;;7.00;5.37;;;;;;;-143.84;66.88;44963.38;5114547;28;20500;-79
2022/08/10 01:33:55;;;;;;;5.30;4.90;;;;;;;-143.84;66.86;44950.06;5113377;28;20987;-79
2022/08/10 01:36:29;;;;;;;14.20;4.93;;;;;;;-143.84;66.75;44942.44;5113262;28;20431;-79
2022/08/10 01:39:01;;;;;;;7.43;5.67;;;;;;;-143.84;66.81;44953.88;5114307;28;20438;-79
2022/08/10 01:41:37;;;;;;;6.77;6.03;;;;;;;-143.84;66.47;44955.75;5113750;28;20434;-79
2022/08/10 01:44:10;;;;;;;9.00;5.50;;;;;;;-143.84;66.38;44951.97;5113258;28;20916;-79
2022/08/10 01:46:42;;;;;;;6.40;5.30;;;;;;;-143.84;66.42;44961.47;5113818;28;20484;-79
2022/08/10 01:49:11;;;;;;;19.97;5.40;;;;;;;-143.84;66.33;44971.00;5112865;28;20431;-79
2022/08/10 01:51:44;;;;;;;6.60;5.00;;;;;;;-143.84;66.45;44955.75;5113051;28;20982;-79
2022/08/10 01:54:14;;;;;;;12.97;5.17;;;;;;;-143.84;66.55;44953.88;5113563;28;20543;-79
2022/08/10 01:56:46;;;;;;;6.40;5.30;;;;;;;-143.84;66.43;44967.19;5074250;28;20885;-79
2022/08/10 01:59:18;;;;;;;5.50;5.00;;;;;;;-143.84;66.50;44957.66;5072654;28;20437;-79
2022/08/10 02:01:50;;;;;;;7.70;5.63;;;;;;;-143.84;66.84;44931.00;5072443;28;20907;-79
2022/08/10 02:04:19;;;;;;;5.30;4.90;;;;;;;-143.84;66.44;44946.25;5072752;28;20449;-79
2022/08/10 02:06:51;;;;;;;5.77;5.37;;;;;;;-143.84;66.22;44974.81;5073137;28;20440;-79
2022/08/10 02:09:21;;;;;;;6.40;5.80;;;;;;;-143.84;66.19;44993.84;5072518;28;20433;-79
2022/08/10 02:11:50;;;;;;;5.60;5.20;;;;;;;-143.84;66.24;44959.56;5072904;28;20440;-80
2022/08/10 02:14:19;;;;;;;8.77;5.67;;;;;;;-143.84;66.31;44988.13;5072361;28;20997;-79
2022/08/10 02:16:52;;;;;;;9.57;6.63;;;;;;;-143.84;65.99;44974.81;5072946;28;20421;-79
2022/08/10 02:19:23;;;;;;;6.57;5.97;;;;;;;-143.84;65.65;44942.44;5072098;28;20441;-79
2022/08/10 02:21:53;;;;;;;5.63;5.03;;;;;;;-143.84;65.19;44957.66;5072382;28;20479;-79
2022/08/10 02:24:22;;;;;;;15.20;5.87;;;;;;;-143.84;65.29;45024.31;5073470;28;20436;-80
2022/08/10 02:26:51;;;;;;;5.50;4.93;;;;;;;-143.84;64.92;44971.00;5072901;28;20470;-79
2022/08/10 02:29:20;;;;;;;12.80;5.73;;;;;;;-143.84;64.65;44972.91;5073026;28;20509;-79
2022/08/10 02:31:49;;;;;;;7.47;5.70;;;;;;;-143.84;64.39;44944.34;5072577;28;20509;-79
2022/08/10 02:34:18;;;;;;;10.43;5.70;;;;;;;-143.84;64.13;44969.09;5072299;28;21059;-80
2022/08/10 02:36:50;;;;;;;7.20;5.57;;;;;;;-143.84;63.86;44971.00;5073426;28;20429;-79
2022/08/10 02:39:21;;;;;;;6.83;5.80;;;;;;;-143.84;64.02;44961.47;5072772;28;20449;-79
2022/08/10 02:41:54;;;;;;;8.70;5.77;;;;;;;-143.84;63.46;44974.81;5072530;28;20429;-79
2022/08/10 02:44:27;;;;;;;5.77;5.20;;;;;;;-143.84;63.47;44951.97;5074489;28;20436;-79
2022/08/10 02:47:03;;;;;;;5.30;4.90;;;;;;;-143.84;63.51;44967.19;5093062;28;20424;-79
2022/08/10 02:49:39;;;;;;;7.70;4.93;;;;;;;-143.84;63.49;44971.00;5093379;28;20497;-79
2022/08/10 02:52:11;;;;;;;10.67;6.00;;;;;;;-143.84;63.37;44978.63;5093417;28;20497;-79
2022/08/10 02:54:49;;;;;;;4.63;4.33;;;;;;;-143.84;63.06;44972.91;5099735;28;20501;-79
2022/08/10 02:57:20;;;;;;;6.83;5.23;;;;;;;-143.84;63.07;44946.25;5133764;28;20422;-80
2022/08/10 02:59:51;;;;;;;7.40;5.50;;;;;;;-143.84;63.31;44955.75;5133834;28;20855;-79
2022/08/10 03:02:29;;;;;;;6.20;5.30;;;;;;;-143.84;63.09;44965.28;5132314;28;20495;-79
2022/08/10 03:05:01;;;;;;;5.93;5.43;;;;;;;-143.84;63.23;44948.16;5134299;28;20463;-80
2022/08/10 03:07:35;;;;;;;6.23;5.73;;;;;;;-143.84;63.10;44972.91;5135701;28;20426;-80
2022/08/10 03:10:04;;;;;;;9.13;5.70;;;;;;;-143.84;62.85;44972.91;5135012;28;20658;-80
2022/08/10 03:12:33;;;;;;;5.93;5.40;;;;;;;-143.84;62.62;44974.81;5134491;28;20448;-79
2022/08/10 03:15:01;;;;;;;6.03;5.30;;;;;;;-143.84;63.10;44961.47;5134756;28;20539;-79
2022/08/10 03:17:31;;;;;;;6.23;5.73;;;;;;;-143.84;62.89;44959.56;5135573;28;20442;-80
2022/08/10 03:20:01;;;;;;;10.63;5.60;;;;;;;-143.84;62.97;44965.28;5133100;28;20449;-79
2022/08/10 03:22:30;;;;;;;6.30;5.90;;;;;;;-143.84;62.77;44950.06;5131704;28;20483;-79
2022/08/10 03:24:58;;;;;;;7.47;6.30;;;;;;;-143.84;62.87;44959.56;5131346;28;20425;-79
2022/08/10 03:27:25;;;;;;;6.97;6.07;;;;;;;-143.84;62.72;44961.47;5133446;28;20438;-79
2022/08/10 03:29:53;;;;;;;5.60;5.10;;;;;;;-143.84;62.83;44961.47;5114626;28;20442;-79
2022/08/10 03:32:22;;;;;;;6.70;5.67;;;;;;;-143.84;62.54;44942.44;5133948;27;20495;-79
2022/08/10 03:34:51;;;;;;;7.40;5.63;;;;;;;-143.84;62.70;44961.47;5136443;27;20477;-79
2022/08/10 03:37:18;;;;;;;5.53;5.03;;;;;;;-143.84;62.62;44931.00;5136754;27;20997;-79
2022/08/10 03:39:46;;;;;;;6.07;5.37;;;;;;;-143.84;62.20;44971.00;5136800;27;20494;-79
2022/08/10 03:42:14;;;;;;;6.00;5.43;;;;;;;-143.84;62.26;44976.72;5117195;27;20494;-79
2022/08/10 03:44:42;;;;;;;7.30;6.10;;;;;;;-143.84;62.03;44948.16;5135291;27;20927;-79
2022/08/10 03:47:13;;;;;;;8.33;6.00;;;;;;;-143.84;61.10;44967.19;5135643;27;20507;-79
2022/08/10 03:49:41;;;;;;;5.70;5.30;;;;;;;-143.84;60.28;44955.75;5135641;27;20487;-79
2022/08/10 03:52:10;;;;;;;7.53;5.60;;;;;;;-143.84;58.45;44946.25;5136066;27;20431;-79
2022/08/10 03:54:38;;;;;;;5.20;4.80;;;;;;;-143.84;56.74;44959.56;5135547;27;20493;-79
2022/08/10 03:57:05;;;;;;;6.13;5.13;;;;;;;-143.84;55.42;44919.59;5133123;27;20867;-73
2022/08/10 03:59:34;;;;;;;6.83;5.60;;;;;;;-143.84;54.05;44967.19;5131829;27;20919;-72
2022/08/10 04:02:02;;;;;;;7.80;5.10;;;;;;;-143.84;52.07;44936.72;5129260;27;20498;-71
2022/08/10 04:04:29;;;;;;;7.87;5.80;;;;;;;-143.84;50.73;44921.50;5132057;27;20472;-71
2022/08/10 04:06:58;;;;;;;5.73;5.20;;;;;;;-143.84;48.79;44921.50;5113768;27;20435;-71
2022/08/10 04:09:30;;;;;;;5.53;5.03;;;;;;;-143.84;47.73;44929.09;5131947;27;20442;-71
2022/08/10 04:11:58;;;;;;;4.97;4.63;;;;;;;-143.84;47.23;44889.13;5131880;27;20438;-71
2022/08/10 04:14:25;;;;;;;5.63;5.10;;;;;;;-143.84;46.69;44923.41;5131709;27;20443;-70
2022/08/10 04:16:52;;;;;;;5.33;4.83;;;;;;;-143.84;46.38;44910.06;5122925;27;20451;-73
2022/08/10 04:19:21;;;;;;;5.60;5.10;;;;;;;-143.84;46.43;44923.41;5123830;27;20446;-74
2022/08/10 04:21:55;;;;;;;6.23;5.23;;;;;;;-143.84;47.09;44925.31;5131560;27;20466;-76
2022/08/10 04:24:26;;;;;;;10.93;4.60;;;;;;;-143.84;47.32;44921.50;5132203;27;20418;-73
2022/08/10 04:26:55;;;;;;;4.90;4.60;;;;;;;-143.84;47.51;44904.34;5124228;27;20462;-73
2022/08/10 04:29:23;;;;;;;11.83;5.13;;;;;;;-143.84;47.13;44919.59;5110985;27;20444;-73
2022/08/10 04:31:52;;;;;;;5.00;4.50;;;;;;;-143.84;46.85;44923.41;5110915;28;20431;-74
2022/08/10 04:34:20;;;;;;;13.07;5.00;;;;;;;-143.84;47.00;44940.53;5111248;28;20439;-73
2022/08/10 04:36:50;;;;;;;14.57;5.17;;;;;;;-143.84;47.07;44921.50;5111170;28;21014;-74
2022/08/10 04:39:18;;;;;;;11.40;4.63;;;;;;;-143.84;47.20;44910.06;5111005;28;20435;-74
2022/08/10 04:41:45;;;;;;;5.13;4.70;;;;;;;-143.84;47.06;44892.94;5110899;28;20937;-74
2022/08/10 04:44:14;;;;;;;6.83;4.90;;;;;;;-143.84;46.97;44908.16;5110170;28;20431;-74
2022/08/10 04:46:41;;;;;;;6.50;4.70;;;;;;;-143.84;46.88;44911.97;5110689;28;20439;-74
2022/08/10 04:49:08;;;;;;;4.80;4.27;;;;;;;-143.84;46.33;44911.97;5110925;27;20435;-74
2022/08/10 04:51:35;;;;;;;6.90;4.27;;;;;;;-143.84;46.65;44913.88;5110922;28;20504;-74
2022/08/10 04:54:02;;;;;;;8.07;4.53;;;;;;;-143.84;46.27;44900.53;5110597;28;20447;-74
2022/08/10 04:56:30;;;;;;;4.17;3.83;;;;;;;-143.84;46.41;44950.06;5110509;27;21031;-74
2022/08/10 04:58:57;;;;;;;18.53;5.53;;;;;;;-143.84;46.13;44887.22;5110551;28;20431;-74
2022/08/10 05:01:25;;;;;;;8.33;5.63;;;;;;;-143.84;46.09;44896.75;5114735;27;20514;-74
2022/08/10 05:03:52;;;;;;;4.70;4.30;;;;;;;-143.84;46.14;44885.31;5131010;27;20958;-74
2022/08/10 05:06:20;;;;;;;4.10;3.80;;;;;;;-143.84;45.87;44919.59;5131067;27;20453;-74
2022/08/10 05:08:47;;;;;;;5.57;4.80;;;;;;;-143.84;46.11;44889.13;5131170;27;20437;-74
2022/08/10 05:11:14;;;;;;;5.80;4.20;;;;;;;-143.84;46.03;44887.22;5131025;27;20442;-74
2022/08/10 05:13:41;;;;;;;5.27;4.60;;;;;;;-143.84;45.82;44917.69;5112852;27;20922;-74
2022/08/10 05:16:09;;;;;;;6.43;4.90;;;;;;;-143.84;45.78;44894.84;5110603;28;21198;-74
2022/08/10 05:18:37;;;;;;;7.57;4.03;;;;;;;-143.84;45.46;44898.66;5110531;28;20500;-74
2022/08/10 05:21:05;;;;;;;7.27;3.80;;;;;;;-143.84;45.50;44911.97;5110075;28;20443;-74
2022/08/10 05:23:32;;;;;;;7.37;3.83;;;;;;;-143.84;44.93;44910.06;5110048;27;20442;-74
2022/08/10 05:25:59;;;;;;;4.50;4.20;;;;;;;-143.84;45.00;44906.25;5109860;28;20435;-74
2022/08/10 05:28:26;;;;;;;5.53;4.50;;;;;;;-143.84;44.54;44919.59;5110131;28;20446;-74
2022/08/10 05:30:53;;;;;;;8.17;5.00;;;;;;;-143.84;44.71;44873.88;5109956;28;20515;-74
2022/08/10 05:33:20;;;;;;;6.30;4.80;;;;;;;-143.84;44.38;44891.03;5109980;28;20446;-74
2022/08/10 05:35:49;;;;;;;7.60;3.60;;;;;;;-143.84;43.55;44898.66;5110031;27;20479;-74
2022/08/10 05:38:17;;;;;;;4.37;4.07;;;;;;;-143.84;43.35;44879.59;5109965;28;20435;-74
2022/08/10 05:40:45;;;;;;;10.23;3.60;;;;;;;-143.84;43.13;44896.75;5109560;27;20873;-74
2022/08/10 05:43:13;;;;;;;4.90;3.60;;;;;;;-143.84;43.21;44889.13;5110053;28;20443;-74
2022/08/10 05:45:40;;;;;;;3.80;3.40;;;;;;;-143.84;42.93;44911.97;5109886;28;20435;-74
2022/08/10 05:48:07;;;;;;;9.20;4.30;;;;;;;-143.84;42.82;44887.22;5128748;27;20506;-73
2022/08/10 05:50:34;;;;;;;5.87;3.90;;;;;;;-143.84;42.08;44898.66;5130131;27;20928;-74
2022/08/10 05:53:03;;;;;;;6.37;4.17;;;;;;;-143.84;41.87;44856.75;5130046;27;20438;-74
2022/08/10 05:55:31;;;;;;;4.43;3.97;;;;;;;-143.84;42.02;44854.84;5129006;27;20489;-69
2022/08/10 05:57:59;;;;;;;8.63;4.10;;;;;;;-143.84;42.17;44870.09;5130042;27;20442;-69
2022/08/10 06:00:29;;;;;;;8.00;3.60;;;;;;;-143.84;42.21;44881.50;5130130;27;20487;-69
2022/08/10 06:03:00;;;;;;;5.57;4.10;;;;;;;-143.84;41.68;44891.03;5112207;27;20956;-69
2022/08/10 06:05:30;;;;;;;7.03;3.27;;;;;;;-143.84;41.44;44892.94;5109471;28;20439;-69
2022/08/10 06:08:02;;;;;;;6.60;3.63;;;;;;;-143.84;41.48;44885.31;5109884;28;21002;-69
2022/08/10 06:10:32;;;;;;;5.27;4.20;;;;;;;-143.84;41.22;44868.19;5109432;28;20934;-69
2022/08/10 06:15:48;;;;;;;7.33;4.27;;;;;;;-143.84;40.81;44870.09;5109456;28;20469;-69
2022/08/10 06:18:15;;;;;;;7.17;3.70;;;;;;;-143.84;41.28;44875.78;5109393;28;20496;-69
2022/08/10 06:20:43;;;;;;;14.23;3.63;;;;;;;-143.84;41.00;44845.31;5109706;28;20488;-69
2022/08/10 06:23:11;;;;;;;5.00;3.70;;;;;;;-143.84;40.53;44833.91;5109380;28;20441;-69
2022/08/10 06:25:40;;;;;;;4.30;3.67;;;;;;;-143.84;40.20;44843.44;5109145;28;20504;-69
2022/08/10 06:28:10;;;;;;;4.03;3.17;;;;;;;-143.84;40.27;44870.09;5109077;28;20450;-69
2022/08/10 06:30:38;;;;;;;7.40;3.87;;;;;;;-143.84;40.16;44864.38;5109596;28;20430;-69
2022/08/10 06:33:07;;;;;;;4.03;3.67;;;;;;;-143.84;39.78;44860.56;5109182;28;20512;-69
2022/08/10 06:35:37;;;;;;;4.43;3.50;;;;;;;-143.84;39.18;44868.19;5109518;28;20975;-69
2022/08/10 06:38:06;;;;;;;6.93;4.00;;;;;;;-143.84;38.79;44832.00;5109431;28;20431;-69
2022/08/10 06:40:36;;;;;;;8.80;3.73;;;;;;;-143.84;39.35;44843.44;5108780;28;20506;-69
2022/08/10 06:43:08;;;;;;;12.23;3.80;;;;;;;-143.84;38.89;44860.56;5109058;28;20439;-69
2022/08/10 06:45:41;;;;;;;3.30;3.00;;;;;;;-143.84;38.87;44864.38;5109114;28;21004;-69
2022/08/10 07:24:35;;;;;;;5.10;2.87;;;;;;;-143.84;37.40;44824.38;5119574;27;20472;-69
2022/08/10 07:27:05;;;;;;;10.43;3.80;;;;;;;-143.84;37.84;44833.91;5133254;27;20450;-69
2022/08/10 07:29:34;;;;;;;4.90;3.40;;;;;;;-143.84;37.24;44809.16;5132701;27;20502;-70
2022/08/10 07:32:02;;;;;;;5.33;2.97;;;;;;;-143.84;36.60;44805.34;5132891;27;20485;-69
2022/08/10 07:34:32;;;;;;;9.13;3.53;;;;;;;-143.84;36.36;44824.38;5132695;27;20951;-69
2022/08/10 07:37:02;;;;;;;13.03;2.97;;;;;;;-143.84;36.35;44835.81;5132499;27;20530;-69
2022/08/10 07:39:30;;;;;;;9.23;3.00;;;;;;;-143.84;36.77;44822.47;5132630;27;20446;-70
2022/08/10 07:42:01;;;;;;;5.13;3.00;;;;;;;-143.84;36.53;44778.69;5132812;27;20962;-70
2022/08/10 07:44:30;;;;;;;10.10;2.50;;;;;;;-143.84;36.73;44797.72;5132840;27;20506;-69
2022/08/10 07:47:02;;;;;;;11.50;3.47;;;;;;;-143.84;36.56;44820.56;5132347;27;20510;-70
2022/08/10 07:49:35;;;;;;;7.23;2.90;;;;;;;-143.84;35.99;44809.16;5131591;27;20586;-70
2022/08/10 07:52:07;;;;;;;5.60;2.70;;;;;;;-143.84;35.77;44805.34;5131306;27;20948;-69
2022/08/10 07:54:39;;;;;;;22.77;2.83;;;;;;;-143.84;35.96;44812.97;5132069;27;21245;-70
2022/08/10 07:57:14;;;;;;;14.73;3.87;;;;;;;-143.84;36.48;44812.97;5131779;27;20478;-70
2022/08/10 07:59:45;;;;;;;20.03;3.60;;;;;;;-143.84;36.76;44822.47;5132084;27;20437;-70
2022/08/10 08:02:20;;;;;;;8.50;2.60;;;;;;;-143.84;36.05;44801.53;5132365;27;20483;-70
2022/08/10 08:04:49;;;;;;;3.80;3.23;;;;;;;-143.84;36.24;44820.56;5132559;27;20499;-69
2022/08/10 08:07:17;;;;;;;6.97;3.40;;;;;;;-143.84;36.27;44795.81;5132607;27;20434;-70
2022/08/10 08:09:45;;;;;;;12.53;3.10;;;;;;;-143.84;35.92;44843.44;5132474;27;20430;-70
2022/08/10 08:12:16;;;;;;;5.53;3.57;;;;;;;-143.84;35.93;44843.44;5132166;27;20442;-70
2022/08/10 08:14:44;;;;;;;9.50;3.47;;;;;;;-143.84;36.33;44832.00;5132156;27;20445;-70
2022/08/10 08:17:16;;;;;;;6.00;3.20;;;;;;;-143.84;35.65;44820.56;5131354;27;20477;-70
2022/08/10 08:19:46;;;;;;;9.20;2.73;;;;;;;-143.84;35.75;44809.16;5131878;27;20430;-70
2022/08/10 08:22:15;;;;;;;5.20;2.73;;;;;;;-143.84;35.90;44805.34;5131735;27;20430;-70
2022/08/10 08:24:43;;;;;;;7.10;2.70;;;;;;;-143.84;35.11;44801.53;5131750;27;20527;-69
2022/08/10 08:27:15;;;;;;;3.93;3.00;;;;;;;-143.84;35.40;44780.59;5131630;27;20438;-70
2022/08/10 08:29:46;;;;;;;9.80;3.40;;;;;;;-143.84;35.34;44790.13;5132325;27;20461;-70
2022/08/10 08:32:18;;;;;;;6.83;2.90;;;;;;;-143.84;35.71;44788.22;5131579;27;20862;-70
2022/08/10 08:34:46;;;;;;;7.80;3.03;;;;;;;-143.84;36.06;44828.19;5131230;27;20441;-70
2022/08/10 08:37:17;;;;;;;11.83;3.20;;;;;;;-143.84;35.91;44801.53;5129379;27;20489;-70
2022/08/10 08:39:44;;;;;;;4.60;2.90;;;;;;;-143.84;36.14;44807.25;5130669;27;20524;-70
2022/08/10 08:42:55;;;;;;;13.97;3.00;;;;;;;-143.84;35.74;44809.16;5132841;27;20449;-69
2022/08/10 08:45:39;;;;;;;11.23;3.00;;;;;;;-143.84;36.41;44820.56;5027956;28;20811;-70
2022/08/10 08:48:30;;;;;;;16.13;3.30;;;;;;;-143.84;35.55;44805.34;5108805;27;20443;-70
2022/08/10 08:51:09;;;;;;;9.93;2.57;;;;;;;-143.84;35.70;44816.78;5110732;28;20439;-70
2022/08/10 08:53:48;;;;;;;6.23;3.40;;;;;;;-143.84;35.71;44793.91;5110690;28;21004;-69
2022/08/10 08:56:25;;;;;;;6.13;3.77;;;;;;;-143.84;36.64;44805.34;5110669;28;20494;-70
2022/08/10 08:59:11;;;;;;;3.13;2.80;;;;;;;-143.84;36.47;44830.09;5110485;28;20442;-70
2022/08/10 09:02:09;;;;;;;7.20;3.60;;;;;;;-143.84;35.79;44801.53;5110580;27;20439;-69
2022/08/10 09:05:01;;;;;;;10.83;3.07;;;;;;;-143.84;37.02;44788.22;5110331;28;20470;-70
2022/08/10 09:07:44;;;;;;;8.77;3.17;;;;;;;-143.84;36.80;44780.59;5110757;28;20447;-69
2022/08/10 09:10:19;;;;;;;9.13;3.20;;;;;;;-143.84;36.22;44801.53;5110382;28;20443;-69
2022/08/10 09:12:52;;;;;;;5.70;2.60;;;;;;;-143.84;37.10;44818.66;5119145;27;20501;-69
2022/08/10 09:15:29;;;;;;;4.30;3.17;;;;;;;-143.84;36.47;44778.69;5151465;27;20441;-70
2022/08/10 09:18:07;;;;;;;3.57;3.23;;;;;;;-143.84;35.16;44795.81;5151040;27;20473;-70
2022/08/10 09:20:40;;;;;;;5.60;3.23;;;;;;;-143.84;35.50;44807.25;5151129;27;20441;-70
2022/08/10 09:23:18;;;;;;;14.20;3.60;;;;;;;-143.84;37.04;44797.72;5151554;27;21018;-69
2022/08/10 09:25:53;;;;;;;4.70;3.50;;;;;;;-143.84;36.06;44782.50;5151226;27;20974;-70
2022/08/10 09:28:24;;;;;;;7.50;3.00;;;;;;;-143.84;35.72;44790.13;5151076;27;20428;-70
2022/08/10 09:30:58;;;;;;;8.33;3.50;;;;;;;-143.84;35.85;44793.91;5151171;27;20477;-69
2022/08/10 09:33:38;;;;;;;4.53;3.27;;;;;;;-143.84;35.67;44822.47;5149619;27;20833;-70
2022/08/10 09:36:19;;;;;;;10.43;3.50;;;;;;;-143.84;35.75;44786.31;5150831;27;20444;-70
2022/08/10 09:38:52;;;;;;;7.60;2.83;;;;;;;-143.84;36.09;44763.47;5151228;27;20444;-69
2022/08/10 09:41:32;;;;;;;5.20;3.10;;;;;;;-143.84;36.18;44795.81;5151320;27;20438;-69
2022/08/10 09:44:21;;;;;;;5.33;2.90;;;;;;;-143.84;36.04;44778.69;5151194;27;20433;-70
2022/08/10 09:47:05;;;;;;;6.63;3.63;;;;;;;-143.84;35.74;44828.19;5151057;27;20525;-70
2022/08/10 09:49:49;;;;;;;6.40;3.17;;;;;;;-143.84;35.67;44786.31;5150696;27;20437;-70
2022/08/10 09:52:25;;;;;;;3.47;3.17;;;;;;;-143.84;36.05;44772.97;5150963;27;20433;-70
2022/08/10 09:55:07;;;;;;;11.60;4.20;;;;;;;-143.84;36.01;44778.69;5151037;27;20448;-70
2022/08/10 09:57:41;;;;;;;6.23;4.37;;;;;;;-143.84;34.31;44765.34;5150637;27;20476;-70
2022/08/10 10:00:11;;;;;;;5.47;3.80;;;;;;;-143.84;34.60;44786.31;5150700;27;20807;-70
2022/08/10 10:02:51;;;;;;;3.67;3.37;;;;;;;-143.84;34.62;44776.78;5150510;27;20437;-70
2022/08/10 10:05:45;;;;;;;6.33;3.67;;;;;;;-143.84;35.36;44780.59;5150540;27;20811;-70
2022/08/10 10:08:26;;;;;;;11.53;3.80;;;;;;;-143.84;36.25;44778.69;5150449;27;20441;-70
2022/08/10 10:11:04;;;;;;;6.60;3.10;;;;;;;-143.84;36.25;44757.75;5150634;27;20942;-70
2022/08/10 10:13:41;;;;;;;8.00;3.13;;;;;;;-143.84;35.40;44761.56;5150542;27;20437;-70
2022/08/10 10:16:22;;;;;;;5.33;3.43;;;;;;;-143.84;34.62;44782.50;5150226;27;21028;-70
2022/08/10 10:19:01;;;;;;;4.33;3.33;;;;;;;-143.84;34.83;44774.88;5150375;27;20432;-70
2022/08/10 10:21:38;;;;;;;4.97;3.77;;;;;;;-143.84;35.75;44799.63;5150598;27;20421;-70
2022/08/10 10:24:16;;;;;;;6.30;3.73;;;;;;;-143.84;34.92;44784.41;5150453;27;20563;-70
2022/08/10 10:26:55;;;;;;;16.20;3.53;;;;;;;-143.84;35.98;44803.44;5150543;27;20513;-70
2022/08/10 10:29:35;;;;;;;7.43;3.90;;;;;;;-143.84;36.56;44812.97;5150493;27;20791;-73
2022/08/10 10:32:11;;;;;;;4.50;4.10;;;;;;;-143.84;35.73;44790.13;5150271;27;20433;-74
2022/08/10 10:34:49;;;;;;;4.80;3.23;;;;;;;-143.84;35.90;44774.88;5139332;27;20462;-74
2022/08/10 10:37:20;;;;;;;5.00;3.50;;;;;;;-143.84;35.16;44797.72;5129497;28;20534;-74
2022/08/10 10:39:52;;;;;;;9.70;2.70;;;;;;;-143.84;35.48;44778.69;5129683;28;20879;-74
2022/08/10 10:42:30;;;;;;;7.70;3.53;;;;;;;-143.84;35.12;44799.63;5132709;27;20507;-74
2022/08/10 10:45:11;;;;;;;10.40;3.27;;;;;;;-143.84;36.25;44771.06;5133718;27;21273;-74
2022/08/10 10:47:53;;;;;;;7.33;3.10;;;;;;;-143.84;36.17;44778.69;5133719;27;20987;-74
2022/08/10 10:50:29;;;;;;;4.97;3.37;;;;;;;-143.84;35.34;44792.00;5133726;27;20472;-74
2022/08/10 10:53:09;;;;;;;8.87;3.90;;;;;;;-143.84;35.81;44807.25;5133647;27;20438;-74
2022/08/10 10:55:46;;;;;;;4.13;3.40;;;;;;;-143.84;36.51;44799.63;5133709;27;20454;-74
2022/08/10 10:58:19;;;;;;;17.87;3.60;;;;;;;-143.84;36.24;44824.38;5133340;27;20546;-74
2022/08/10 11:00:55;;;;;;;6.33;3.53;;;;;;;-143.84;35.63;44793.91;5133336;27;20449;-74
2022/08/10 11:03:34;;;;;;;7.97;3.93;;;;;;;-143.84;36.53;44797.72;5132389;27;20844;-74
2022/08/10 11:06:15;;;;;;;8.10;3.40;;;;;;;-143.84;36.93;44812.97;5133208;27;20429;-74
2022/08/10 11:08:49;;;;;;;4.27;3.47;;;;;;;-143.84;36.29;44782.50;5131358;27;20595;-74
2022/08/10 11:11:23;;;;;;;6.23;3.50;;;;;;;-143.84;35.15;44795.81;5153861;27;20436;-74
2022/08/10 11:14:01;;;;;;;13.47;5.37;;;;;;;-143.84;36.67;44774.88;5143531;27;20441;-74
2022/08/10 11:16:37;;;;;;;7.33;3.30;;;;;;;-143.84;36.40;44753.94;5127467;27;21013;-74
2022/08/10 11:19:14;;;;;;;12.07;4.00;;;;;;;-143.84;36.21;44790.13;5112545;28;20446;-74
2022/08/10 11:21:50;;;;;;;16.67;4.10;;;;;;;-143.84;35.57;44812.97;5112476;28;20438;-74
2022/08/10 11:24:26;;;;;;;6.33;3.30;;;;;;;-143.84;35.92;44805.34;5112024;28;21091;-74
2022/08/10 11:27:00;;;;;;;4.33;3.90;;;;;;;-143.84;35.19;44793.91;5112255;28;20450;-74
2022/08/10 11:29:35;;;;;;;4.70;3.97;;;;;;;-143.84;35.70;44774.88;5112153;28;20438;-74
2022/08/10 11:32:08;;;;;;;10.17;4.20;;;;;;;-143.84;34.98;44795.81;5112501;28;20518;-74
2022/08/10 11:34:42;;;;;;;9.17;4.13;;;;;;;-143.84;35.74;44811.06;5114588;27;20862;-74
2022/08/10 11:37:22;;;;;;;5.13;3.70;;;;;;;-143.84;36.03;44782.50;5140283;27;20484;-74
2022/08/10 11:39:56;;;;;;;9.00;3.70;;;;;;;-143.84;36.79;44797.72;5120712;27;20507;-74
2022/08/10 11:42:33;;;;;;;9.33;3.93;;;;;;;-143.84;36.85;44811.06;5143407;27;20445;-74
2022/08/10 11:45:03;;;;;;;8.60;3.50;;;;;;;-143.84;36.26;44799.63;5124542;27;21131;-74
2022/08/10 11:47:38;;;;;;;11.53;3.83;;;;;;;-143.84;35.63;44784.41;5112155;28;21076;-74
2022/08/10 11:50:11;;;;;;;6.00;3.30;;;;;;;-143.84;35.56;44780.59;5111882;28;20435;-74
2022/08/10 11:52:47;;;;;;;5.03;3.30;;;;;;;-143.84;35.50;44805.34;5110951;28;20423;-74
2022/08/10 11:55:19;;;;;;;12.23;3.53;;;;;;;-143.84;35.79;44824.38;5111848;28;20515;-74
2022/08/10 11:57:48;;;;;;;15.30;3.83;;;;;;;-143.84;35.37;44805.34;5111801;28;20533;-74
2022/08/10 12:00:16;;;;;;;8.30;3.33;;;;;;;-143.84;36.12;44805.34;5111761;28;20492;-74
2022/08/10 12:02:48;;;;;;;5.27;3.43;;;;;;;-143.84;36.50;44797.72;5111446;28;20528;-74
2022/08/10 12:05:20;;;;;;;3.67;3.20;;;;;;;-143.84;36.83;44820.56;5111595;28;20551;-74
2022/08/10 12:07:50;;;;;;;8.47;3.40;;;;;;;-143.84;36.76;44797.72;5111782;28;20431;-74
2022/08/10 12:10:20;;;;;;;9.80;3.43;;;;;;;-143.84;36.64;44803.44;5111694;28;21016;-74
2022/08/10 12:12:54;;;;;;;4.63;3.40;;;;;;;-143.84;35.35;44797.72;5111463;28;20544;-74
2022/08/10 12:15:27;;;;;;;3.67;3.47;;;;;;;-143.84;35.89;44837.72;5111441;28;20492;-74
2022/08/10 12:18:01;;;;;;;5.57;3.03;;;;;;;-143.84;36.72;44847.22;5111514;28;20531;-74